El Dorado, AR

1:55 AM CDT on August 28, 2016 (GMT -0500)
South Arkansas Regional At Goodwin | | Change Station

Elev 276 ft 33.22 °N, 92.81 °W | Updated 1 hour ago

Clear
Clear
76 °F
Feels Like 76 °F
N
4
Wind Variable Wind from SW

Today
High -- | Low -- °F
--% Chance of Precip.
Yesterday
High -- | Low -- °F
Precip. -- in
Pressure 30.02 in
Visibility 10.0 miles
Clouds Clear
Dew Point 74 °F
Humidity 94%
Rainfall 0.00 in
Snow Depth Not available.
6:43 AM 7:40 PM
Waning Crescent, 18% visible
METAR KELD 280553Z AUTO 22003KT 10SM CLR 24/23 A3003 RMK AO2 SLP165 T02440233 10300 20239 403280211 51003
Pressure 30.02 in
Visibility 10.0 miles
Clouds Clear
Dew Point 74 °F
Humidity 94%
Rainfall 0.00 in
Snow Depth Not available.
6:43 AM 7:40 PM
Waning Crescent, 18% visible
METAR KELD 280553Z AUTO 22003KT 10SM CLR 24/23 A3003 RMK AO2 SLP165 T02440233 10300 20239 403280211 51003

10-Day Weather Forecast

Almanac

Astronomy

Aug. 28, 2016 Rise Set
Actual Time
Civil Twilight
Nautical Twilight
Astronomical Twilight
Moon
Length of Visible Light
Length of Day
Tomorrow will be .
, % of the Moon is Illuminated

Today's Extremes

State Highs State Lows

Community

WunderPhotos

Upload Photos

1,935,533 photos uploaded!

WunderBlog® & News

Nearby

Air Quality

  Air Quality AQ Index Pollutant
Not available.

Snow Depth

Station Depth Elevation

Earthquake Activity

City Distance Mag. Time & Date
Minimum magnitude displayed is 2.5.

Coastal Water Temperatures

Place Temperature

Stations

Nearby Weather Stations

Station Location Temp. Windchill Dew Point Humidity Wind Precip. Elev Updated Type
                   

Watches & Warnings

There are currently no watches in effect.